Time;durP1;ratioP1;P1;durP2;ratioP2;P2;SDS_P1;SDS_P2;PMS_P1;PMS_P2;Temp;Humidity;BMP_temperature;BMP_pressure;BME280_temperature;BME280_humidity;BME280_pressure;Samples;Min_cycle;Max_cycle;Signal;HPM_P1;HPM_P2
2023/07/31 00:00:31;;;;;;;;;3.00;3.00;;;;;20.31;65.98;100807.13;5039910;28;45417;-73
2023/07/31 00:02:57;;;;;;;;;3.67;2.67;;;;;20.31;66.15;100793.00;5039936;28;45296;-73
2023/07/31 00:05:22;;;;;;;;;1.00;0.00;;;;;20.41;65.56;100800.91;5040112;28;45500;-72
2023/07/31 00:07:48;;;;;;;;;2.00;2.00;;;;;20.44;65.90;100803.53;5039870;28;46306;-73
2023/07/31 00:10:13;;;;;;;;;1.67;0.67;;;;;20.46;65.96;100804.41;5039785;28;45302;-73
2023/07/31 00:12:42;;;;;;;;;4.33;3.33;;;;;20.40;65.97;100788.53;5039886;28;45275;-73
2023/07/31 00:15:08;;;;;;;;;4.00;2.67;;;;;20.45;65.59;100794.69;5039992;28;45225;-73
2023/07/31 00:17:33;;;;;;;;;5.00;2.33;;;;;20.41;65.54;100792.06;5039602;28;45573;-73
2023/07/31 00:19:59;;;;;;;;;3.00;2.67;;;;;20.51;65.63;100803.50;5039410;28;45380;-73
2023/07/31 00:22:25;;;;;;;;;3.33;3.33;;;;;20.53;65.78;100804.34;5038093;28;45550;-72
2023/07/31 00:24:51;;;;;;;;;2.33;1.67;;;;;20.58;65.41;100800.78;5039855;28;45489;-73
2023/07/31 00:27:17;;;;;;;;;2.00;2.00;;;;;20.60;65.46;100804.34;5039673;28;45332;-73
2023/07/31 00:29:42;;;;;;;;;4.67;2.67;;;;;20.61;65.33;100790.19;5039327;28;45493;-73
2023/07/31 00:32:08;;;;;;;;;4.33;3.67;;;;;20.72;65.51;100798.06;5039111;28;45291;-73
2023/07/31 00:34:34;;;;;;;;;3.67;2.00;;;;;20.70;65.02;100794.53;5038001;28;45637;-72
2023/07/31 00:36:59;;;;;;;;;4.67;4.00;;;;;20.71;65.29;100782.13;5039084;28;46006;-73
2023/07/31 00:39:25;;;;;;;;;5.33;4.33;;;;;20.80;64.86;100792.69;5039185;28;45267;-72
2023/07/31 00:41:51;;;;;;;;;4.00;3.33;;;;;20.79;65.39;100790.91;5039375;28;45360;-73
2023/07/31 00:44:16;;;;;;;;;3.00;2.67;;;;;20.80;65.43;100788.25;5039830;28;45327;-73
2023/07/31 00:46:42;;;;;;;;;2.67;2.00;;;;;20.78;65.38;100776.78;5039001;28;45492;-73
2023/07/31 00:49:08;;;;;;;;;3.00;3.00;;;;;20.81;65.22;100784.72;5037908;28;45586;-73
2023/07/31 00:51:34;;;;;;;;;3.67;3.33;;;;;20.78;65.13;100786.50;5039223;28;45504;-73
2023/07/31 00:54:00;;;;;;;;;3.67;3.00;;;;;20.67;65.96;100778.63;5039192;28;45450;-73
2023/07/31 00:56:28;;;;;;;;;2.67;1.67;;;;;20.61;65.45;100773.38;5038981;28;45798;-73
2023/07/31 00:58:53;;;;;;;;;3.00;2.67;;;;;20.66;65.75;100764.47;5038468;28;45507;-73
2023/07/31 01:01:19;;;;;;;;;2.67;2.00;;;;;20.69;65.33;100763.59;5039352;28;45342;-73
2023/07/31 01:03:44;;;;;;;;;2.33;1.67;;;;;20.70;65.21;100762.69;5039205;28;45299;-73
2023/07/31 01:06:47;;;;;;;;;3.33;2.00;;;;;20.75;65.46;100765.28;5038658;28;46065;-73
2023/07/31 01:09:13;;;;;;;;;2.67;2.67;;;;;20.74;65.32;100761.75;5038927;28;45359;-73
2023/07/31 01:11:47;;;;;;;;;2.00;1.67;;;;;20.71;65.65;100745.88;5038842;28;45549;-74
2023/07/31 01:14:13;;;;;;;;;3.00;2.67;;;;;20.66;65.50;100758.28;5039201;28;45664;-73
2023/07/31 01:16:38;;;;;;;;;4.00;3.67;;;;;20.54;65.79;100738.00;5038432;28;45403;-73
2023/07/31 01:19:06;;;;;;;;;3.00;2.67;;;;;20.52;66.17;100744.22;5038936;28;45414;-73
2023/07/31 01:21:59;;;;;;;;;3.00;2.67;;;;;20.48;66.62;100745.16;5038573;28;45499;-73
2023/07/31 01:24:49;;;;;;;;;4.00;2.33;;;;;20.36;66.63;100736.38;5037332;28;45228;-73
2023/07/31 01:27:21;;;;;;;;;4.33;3.67;;;;;20.40;66.79;100737.25;5038165;28;45339;-73
2023/07/31 01:30:10;;;;;;;;;3.00;3.00;;;;;20.22;67.41;100731.16;5037048;28;45598;-73
2023/07/31 01:32:40;;;;;;;;;1.67;1.67;;;;;20.13;68.08;100730.34;5037437;28;45374;-72
2023/07/31 01:35:07;;;;;;;;;3.00;2.67;;;;;19.94;68.18;100716.34;5039047;28;45577;-73
2023/07/31 01:37:33;;;;;;;;;3.00;3.00;;;;;19.86;68.91;100719.03;5038074;28;45373;-72
2023/07/31 01:39:58;;;;;;;;;4.33;3.33;;;;;19.72;68.84;100715.56;5038292;28;45460;-73
2023/07/31 01:42:24;;;;;;;;;3.67;3.00;;;;;19.76;68.91;100704.06;5038429;28;45498;-72
2023/07/31 01:44:50;;;;;;;;;2.33;2.33;;;;;19.84;68.91;100710.19;5038727;28;45366;-73
2023/07/31 01:47:16;;;;;;;;;2.67;1.67;;;;;19.72;68.92;100703.19;5036780;28;47899;-72
2023/07/31 01:49:41;;;;;;;;;3.33;2.67;;;;;19.76;68.83;100698.75;5038176;28;45493;-73
2023/07/31 01:52:07;;;;;;;;;4.67;3.33;;;;;19.83;68.70;100696.03;5038553;28;45292;-73
2023/07/31 01:54:33;;;;;;;;;4.67;3.00;;;;;19.80;68.74;100695.19;5038539;28;45478;-73
2023/07/31 01:56:59;;;;;;;;;3.67;3.00;;;;;19.81;68.45;100691.66;5038040;28;46089;-72
2023/07/31 01:59:24;;;;;;;;;3.33;3.33;;;;;19.83;68.18;100681.91;5037840;28;45903;-73
2023/07/31 02:01:50;;;;;;;;;4.33;3.67;;;;;19.89;68.25;100684.53;5037919;28;45400;-73
2023/07/31 02:04:16;;;;;;;;;2.33;2.33;;;;;19.92;68.13;100688.94;5036688;28;45547;-73
2023/07/31 02:06:41;;;;;;;;;4.00;3.33;;;;;19.90;67.99;100688.94;5037580;28;46746;-74
2023/07/31 02:09:07;;;;;;;;;3.33;3.00;;;;;19.85;67.90;100678.34;5038093;28;45225;-73
2023/07/31 02:11:32;;;;;;;;;3.33;3.00;;;;;19.87;68.38;100688.94;5037241;28;45287;-73
2023/07/31 02:13:58;;;;;;;;;4.33;3.00;;;;;19.81;67.84;100687.22;5038100;28;45480;-73
2023/07/31 02:16:24;;;;;;;;;3.33;3.00;;;;;19.56;67.77;100640.53;5037682;28;45336;-72
2023/07/31 02:18:49;;;;;;;;;6.00;4.00;;;;;19.74;67.79;100682.84;5037688;28;45411;-72
2023/07/31 02:21:15;;;;;;;;;4.00;3.00;;;;;19.80;68.59;100692.56;5037638;28;45525;-72
2023/07/31 02:23:40;;;;;;;;;4.67;4.33;;;;;19.79;68.42;100694.28;5038376;28;45548;-73
2023/07/31 02:26:06;;;;;;;;;2.67;2.67;;;;;19.67;68.07;100686.38;5037162;28;45478;-73
2023/07/31 02:28:31;;;;;;;;;4.00;3.67;;;;;19.71;67.98;100697.84;5037504;28;45430;-73
2023/07/31 02:30:57;;;;;;;;;3.00;3.00;;;;;19.71;67.87;100693.47;5038043;28;45450;-73
2023/07/31 02:33:23;;;;;;;;;3.33;3.00;;;;;19.65;68.05;100681.09;5037922;28;45411;-73
2023/07/31 02:35:48;;;;;;;;;4.00;3.00;;;;;19.72;68.38;100694.38;5035583;28;47899;-73
2023/07/31 02:38:14;;;;;;;;;6.00;3.33;;;;;19.66;68.09;100682.84;5037166;28;45473;-73
2023/07/31 02:40:43;;;;;;;;;3.33;3.00;;;;;19.60;67.68;100687.31;5036220;28;45538;-73
2023/07/31 02:43:09;;;;;;;;;3.67;3.67;;;;;19.48;68.01;100690.91;5037875;28;45548;-73
2023/07/31 02:45:34;;;;;;;;;2.33;2.33;;;;;19.30;69.00;100698.91;5037078;28;46049;-73
2023/07/31 02:48:00;;;;;;;;;3.00;3.00;;;;;19.43;68.21;100693.56;5037223;28;45502;-73
2023/07/31 02:50:27;;;;;;;;;5.00;3.67;;;;;19.48;67.90;100698.84;5037069;28;45501;-73
2023/07/31 02:52:53;;;;;;;;;3.00;2.67;;;;;19.44;68.18;100695.31;5037418;28;45521;-73
2023/07/31 02:55:18;;;;;;;;;5.33;4.00;;;;;19.37;68.38;100695.34;5037221;28;45409;-73
2023/07/31 02:57:44;;;;;;;;;3.33;3.33;;;;;19.27;68.79;100687.44;5037153;28;45499;-73
2023/07/31 03:00:10;;;;;;;;;3.33;2.00;;;;;19.25;68.77;100706.88;5037551;28;45461;-73
2023/07/31 03:02:36;;;;;;;;;5.00;4.00;;;;;19.26;68.71;100706.00;5037447;28;45430;-73
2023/07/31 03:05:01;;;;;;;;;3.33;3.00;;;;;19.22;68.70;100694.53;5035474;28;45329;-73
2023/07/31 03:07:27;;;;;;;;;4.00;3.67;;;;;19.14;69.06;100704.28;5035723;28;45461;-73
2023/07/31 03:09:53;;;;;;;;;6.00;4.00;;;;;18.91;69.21;100683.13;5037071;28;45407;-73
2023/07/31 03:12:19;;;;;;;;;3.00;3.00;;;;;18.81;69.86;100690.19;5037013;28;45634;-73
2023/07/31 03:14:45;;;;;;;;;3.33;3.00;;;;;18.75;70.23;100703.41;5037222;28;45517;-73
2023/07/31 03:17:10;;;;;;;;;3.00;3.00;;;;;18.60;70.66;100690.19;5036785;28;45359;-73
2023/07/31 03:19:36;;;;;;;;;5.00;4.00;;;;;18.66;70.66;100709.59;5036989;28;45444;-73
2023/07/31 03:22:01;;;;;;;;;6.00;4.00;;;;;18.66;70.76;100714.91;5037305;28;45496;-73
2023/07/31 03:24:29;;;;;;;;;4.00;3.00;;;;;18.58;70.55;100710.47;5040339;28;45577;-73
2023/07/31 03:26:54;;;;;;;;;4.00;4.00;;;;;18.58;70.75;100715.75;5038893;28;45498;-72
2023/07/31 03:29:20;;;;;;;;;5.00;4.00;;;;;18.51;70.88;100709.59;5040370;28;45651;-73
2023/07/31 03:31:45;;;;;;;;;7.00;3.67;;;;;18.55;71.35;100716.66;5040873;28;45274;-73
2023/07/31 03:34:11;;;;;;;;;3.00;2.00;;;;;18.43;71.44;100698.16;5039089;28;45243;-73
2023/07/31 03:36:37;;;;;;;;;3.33;3.00;;;;;18.49;71.92;100711.38;5040356;28;45267;-73
2023/07/31 03:39:03;;;;;;;;;4.67;3.67;;;;;18.54;71.49;100719.28;5038929;28;45463;-73
2023/07/31 03:41:29;;;;;;;;;3.33;3.33;;;;;18.59;71.14;100728.13;5040327;28;45536;-73
2023/07/31 03:43:57;;;;;;;;;2.67;2.67;;;;;18.56;70.71;100723.72;5039949;28;45517;-73
2023/07/31 03:46:24;;;;;;;;;4.00;4.00;;;;;18.62;71.12;100725.47;5040069;28;45331;-73
2023/07/31 03:48:50;;;;;;;;;3.00;3.00;;;;;18.62;71.04;100728.09;5040012;28;45489;-73
2023/07/31 03:51:17;;;;;;;;;4.00;4.00;;;;;18.64;70.65;100727.25;5040543;28;45356;-73
2023/07/31 03:53:43;;;;;;;;;2.33;2.33;;;;;18.68;70.24;100721.06;5040121;28;46250;-73
2023/07/31 03:56:08;;;;;;;;;4.00;3.00;;;;;18.66;69.96;100738.72;5039785;28;45351;-73
2023/07/31 03:58:35;;;;;;;;;4.00;1.33;;;;;18.66;69.90;100722.84;5039983;28;45411;-73
2023/07/31 04:01:01;;;;;;;;;3.33;3.33;;;;;18.82;69.61;100734.31;5038781;28;45564;-73
2023/07/31 04:03:27;;;;;;;;;5.00;5.00;;;;;18.83;69.95;100729.91;5039591;28;45449;-73
2023/07/31 04:05:54;;;;;;;;;4.00;3.00;;;;;18.85;69.55;100720.19;5039835;28;45295;-73
2023/07/31 04:08:20;;;;;;;;;4.67;4.00;;;;;18.93;69.18;100729.00;5038278;28;45426;-73
2023/07/31 04:10:45;;;;;;;;;5.67;5.00;;;;;18.81;69.25;100691.97;5040198;28;45454;-73
2023/07/31 04:13:11;;;;;;;;;5.00;3.67;;;;;19.15;69.40;100740.44;5039503;28;45969;-73
2023/07/31 04:15:36;;;;;;;;;3.33;3.33;;;;;19.17;69.44;100733.38;5039700;28;45304;-73
2023/07/31 04:18:02;;;;;;;;;5.00;3.00;;;;;19.28;68.96;100725.41;5039542;28;45565;-73
2023/07/31 04:20:28;;;;;;;;;3.00;3.00;;;;;19.26;68.84;100720.13;5039825;28;45465;-73
2023/07/31 04:22:53;;;;;;;;;3.00;3.00;;;;;19.33;69.06;100730.69;5039545;28;45462;-73
2023/07/31 04:25:19;;;;;;;;;3.33;3.00;;;;;19.33;68.69;100722.75;5039722;28;45405;-73
2023/07/31 04:27:44;;;;;;;;;4.00;4.00;;;;;19.47;68.56;100735.03;5039962;28;45374;-73
2023/07/31 04:30:10;;;;;;;;;5.00;4.00;;;;;19.51;68.43;100727.09;5039652;28;45242;-73
2023/07/31 04:32:36;;;;;;;;;4.00;4.00;;;;;19.42;68.87;100712.13;5038870;28;45374;-73
2023/07/31 04:35:02;;;;;;;;;3.00;3.00;;;;;19.54;68.65;100720.03;5038976;28;45370;-73
2023/07/31 04:37:28;;;;;;;;;3.00;2.67;;;;;19.65;68.24;100728.78;5037941;28;45399;-72
2023/07/31 04:39:53;;;;;;;;;3.00;3.00;;;;;19.56;67.96;100734.16;5039442;28;45304;-72
2023/07/31 04:42:19;;;;;;;;;3.00;3.00;;;;;19.30;68.84;100726.28;5039403;28;45488;-73
2023/07/31 04:44:44;;;;;;;;;5.00;4.00;;;;;19.24;69.18;100734.25;5037842;28;45363;-73
2023/07/31 04:47:10;;;;;;;;;4.00;4.00;;;;;19.13;69.58;100736.91;5038971;28;45343;-73
2023/07/31 04:49:36;;;;;;;;;3.00;3.00;;;;;19.04;69.42;100721.94;5038097;28;45514;-73
2023/07/31 04:52:01;;;;;;;;;3.00;3.00;;;;;19.06;69.38;100719.28;5037690;28;47666;-73
2023/07/31 04:54:27;;;;;;;;;3.33;3.00;;;;;19.08;69.40;100723.69;5039171;28;45265;-73
2023/07/31 04:56:53;;;;;;;;;2.00;2.00;;;;;19.03;70.19;100727.22;5037536;28;45450;-73
2023/07/31 04:59:18;;;;;;;;;4.33;3.33;;;;;19.00;70.36;100712.25;5037746;28;45490;-73
2023/07/31 05:01:45;;;;;;;;;4.00;3.00;;;;;19.02;69.82;100717.50;5038752;28;45420;-73
2023/07/31 05:04:14;;;;;;;;;5.00;4.00;;;;;18.93;69.96;100706.97;5038989;28;45430;-73
2023/07/31 05:06:39;;;;;;;;;4.00;4.00;;;;;18.68;70.37;100664.59;5038894;28;45428;-72
2023/07/31 05:09:05;;;;;;;;;3.33;3.33;;;;;19.10;70.10;100725.44;5039005;28;45291;-73
2023/07/31 05:11:31;;;;;;;;;3.00;2.67;;;;;19.13;70.08;100710.44;5038766;28;46525;-73
2023/07/31 05:13:56;;;;;;;;;4.00;3.00;;;;;19.23;69.98;100714.81;5038811;28;45354;-73
2023/07/31 05:16:22;;;;;;;;;4.00;4.00;;;;;19.32;69.86;100719.22;5039068;28;45360;-73
2023/07/31 05:18:47;;;;;;;;;5.00;4.00;;;;;19.41;69.65;100715.66;5039186;28;45537;-73
2023/07/31 05:21:13;;;;;;;;;4.00;4.00;;;;;19.40;69.42;100698.00;5037084;28;46291;-73
2023/07/31 05:23:39;;;;;;;;;4.00;4.00;;;;;19.49;69.29;100697.94;5037273;28;45561;-73
2023/07/31 05:26:09;;;;;;;;;3.33;3.00;;;;;19.66;68.86;100709.38;5038698;28;45326;-73
2023/07/31 05:28:36;;;;;;;;;4.00;3.67;;;;;19.70;69.33;100701.41;5038680;28;45592;-73
2023/07/31 05:31:03;;;;;;;;;3.00;3.00;;;;;19.76;69.59;100704.06;5038178;28;45970;-73
2023/07/31 05:33:29;;;;;;;;;3.67;3.67;;;;;19.85;69.22;100702.22;5036865;28;45466;-73
2023/07/31 05:35:55;;;;;;;;;2.67;2.67;;;;;19.81;69.59;100678.38;5038276;28;45470;-73
2023/07/31 05:38:21;;;;;;;;;5.67;4.67;;;;;19.94;69.26;100681.88;5038585;28;45332;-73
2023/07/31 05:40:47;;;;;;;;;6.67;3.67;;;;;20.04;68.58;100687.09;5038243;28;45533;-72
2023/07/31 05:43:13;;;;;;;;;4.33;4.00;;;;;20.04;69.02;100689.72;5038219;28;45387;-73
2023/07/31 05:45:40;;;;;;;;;2.67;2.67;;;;;20.06;69.10;100693.25;5037356;28;45399;-73
2023/07/31 05:48:05;;;;;;;;;3.33;2.33;;;;;20.10;69.19;100690.59;5038508;28;45389;-73
2023/07/31 05:50:31;;;;;;;;;4.00;3.67;;;;;20.36;68.53;100682.44;5036472;28;46796;-74
2023/07/31 05:52:57;;;;;;;;;4.00;3.33;;;;;20.62;68.42;100676.94;5036640;28;45810;-73
2023/07/31 05:55:23;;;;;;;;;4.67;3.00;;;;;20.77;67.70;100666.19;5038468;28;45169;-73
2023/07/31 05:57:49;;;;;;;;;4.67;3.33;;;;;21.01;66.68;100673.00;5038548;28;45364;-73
2023/07/31 06:00:15;;;;;;;;;3.67;2.67;;;;;21.17;66.47;100648.88;5037937;28;45464;-73
2023/07/31 06:02:40;;;;;;;;;3.67;3.00;;;;;21.47;65.96;100663.63;5036564;28;45561;-73
2023/07/31 06:05:06;;;;;;;;;3.00;2.00;;;;;21.65;64.89;100649.22;5038134;28;45555;-73
2023/07/31 06:07:32;;;;;;;;;5.00;3.00;;;;;21.94;64.55;100672.69;5038048;28;45565;-73
2023/07/31 06:10:04;;;;;;;;;2.67;2.67;;;;;22.13;63.99;100657.34;5037823;28;45514;-73
2023/07/31 06:12:33;;;;;;;;;4.67;3.33;;;;;22.52;63.81;100670.94;5038045;28;46218;-73
2023/07/31 06:14:59;;;;;;;;;3.00;3.00;;;;;22.88;62.53;100668.53;5037994;28;45300;-73
2023/07/31 06:17:25;;;;;;;;;2.00;2.00;;;;;23.19;61.25;100668.81;5038200;28;45311;-73
2023/07/31 06:19:52;;;;;;;;;3.00;3.00;;;;;23.28;60.61;100669.53;5036582;28;46474;-73
2023/07/31 06:22:17;;;;;;;;;4.33;3.00;;;;;25.43;55.32;100658.00;5037346;28;46137;-73
2023/07/31 06:24:43;;;;;;;;;3.67;3.67;;;;;27.83;50.32;100641.69;5037749;28;45395;-73
2023/07/31 06:27:09;;;;;;;;;5.00;5.00;;;;;29.77;44.90;100657.50;5037095;28;45533;-73
2023/07/31 06:29:35;;;;;;;;;4.67;3.67;;;;;30.85;43.51;100651.09;5037243;28;45483;-73
2023/07/31 06:32:04;;;;;;;;;5.00;4.00;;;;;31.99;40.07;100661.06;5037054;28;45410;-74
2023/07/31 06:34:32;;;;;;;;;3.67;3.00;;;;;33.04;38.98;100650.31;5037343;28;45254;-73
2023/07/31 06:36:57;;;;;;;;;4.00;4.00;;;;;34.23;37.83;100665.28;5037744;28;45271;-73
2023/07/31 06:39:23;;;;;;;;;5.00;4.00;;;;;34.86;34.70;100658.28;5037393;28;45323;-74
2023/07/31 06:42:04;;;;;;;;;3.00;3.00;;;;;35.21;33.92;100663.06;5036440;28;45508;-73
2023/07/31 06:44:34;;;;;;;;;3.33;2.00;;;;;36.12;31.67;100645.56;5031585;28;45657;-73
2023/07/31 06:47:00;;;;;;;;;2.67;2.67;;;;;36.91;32.92;100658.59;5037406;28;45512;-73
2023/07/31 06:49:25;;;;;;;;;1.33;1.33;;;;;36.08;31.24;100654.94;5037270;28;45454;-74
2023/07/31 06:51:51;;;;;;;;;3.00;2.67;;;;;34.19;35.44;100646.63;5037061;28;45403;-73
2023/07/31 06:54:17;;;;;;;;;3.00;3.00;;;;;34.46;33.95;100652.91;5037128;28;45418;-74
2023/07/31 06:56:42;;;;;;;;;2.33;2.00;;;;;34.93;33.49;100641.56;5037186;28;45314;-73
2023/07/31 06:59:08;;;;;;;;;2.00;2.00;;;;;33.38;35.93;100642.81;5036943;28;46026;-73
2023/07/31 07:01:34;;;;;;;;;2.00;1.67;;;;;33.43;36.07;100651.53;5037000;28;45507;-74
2023/07/31 07:03:59;;;;;;;;;1.33;1.33;;;;;35.10;34.33;100648.50;5036878;28;45585;-74
2023/07/31 07:06:25;;;;;;;;;1.33;1.33;;;;;36.70;31.25;100655.72;5037583;28;46100;-73
2023/07/31 07:08:51;;;;;;;;;4.00;2.67;;;;;37.93;30.33;100651.28;5035470;28;45346;-73
2023/07/31 07:11:17;;;;;;;;;3.00;2.00;;;;;37.29;30.92;100641.09;5036689;28;45284;-73
2023/07/31 07:13:43;;;;;;;;;2.33;2.33;;;;;37.99;29.80;100642.59;5036579;28;45509;-73
2023/07/31 07:16:10;;;;;;;;;3.67;3.67;;;;;38.78;28.35;100653.19;5036969;28;45779;-74
2023/07/31 07:18:35;;;;;;;;;3.00;2.67;;;;;39.25;27.59;100655.44;5036308;28;46002;-73
2023/07/31 07:21:02;;;;;;;;;2.33;2.00;;;;;39.55;26.99;100669.09;5036513;28;45383;-74
2023/07/31 07:23:34;;;;;;;;;2.67;2.00;;;;;40.05;27.40;100624.47;5036502;28;45439;-74
2023/07/31 07:25:59;;;;;;;;;3.00;2.00;;;;;38.70;28.85;100670.22;5035328;28;45569;-73
2023/07/31 07:28:25;;;;;;;;;1.67;1.67;;;;;39.09;27.77;100661.41;5036421;28;45956;-74
2023/07/31 07:30:53;;;;;;;;;2.33;1.67;;;;;39.92;27.21;100663.03;5036576;28;45513;-74
2023/07/31 07:33:19;;;;;;;;;1.00;0.00;;;;;40.58;26.20;100655.16;5036612;28;45485;-74
2023/07/31 07:35:45;;;;;;;;;3.33;2.33;;;;;41.05;26.97;100666.19;5036391;28;45656;-74
2023/07/31 07:38:10;;;;;;;;;2.00;2.00;;;;;41.51;24.09;100670.75;5035839;28;45407;-74
2023/07/31 07:40:40;;;;;;;;;1.00;1.00;;;;;41.61;25.24;100659.75;5036444;28;45490;-74
2023/07/31 07:43:05;;;;;;;;;3.00;2.00;;;;;40.53;26.07;100663.78;5036827;28;45491;-74
2023/07/31 07:45:31;;;;;;;;;1.67;1.33;;;;;40.91;26.06;100662.88;5035305;28;45543;-73
2023/07/31 07:47:57;;;;;;;;;7.33;6.33;;;;;40.87;25.41;100658.72;5034664;28;45956;-74
2023/07/31 07:50:23;;;;;;;;;3.33;2.33;;;;;41.47;24.44;100641.91;5035399;28;45829;-74
2023/07/31 07:52:49;;;;;;;;;2.67;2.67;;;;;40.90;25.39;100650.19;5035162;28;45386;-75
2023/07/31 07:55:14;;;;;;;;;2.00;2.00;;;;;41.37;24.47;100645.72;5034489;28;45364;-75
2023/07/31 07:57:40;;;;;;;;;1.00;1.00;;;;;41.78;23.76;100648.97;5035159;28;45565;-74
2023/07/31 08:00:10;;;;;;;;;2.00;1.00;;;;;42.15;23.79;100639.78;5034109;28;45556;-75
2023/07/31 08:02:36;;;;;;;;;1.33;1.00;;;;;42.72;23.46;100632.03;5034200;28;45435;-75
2023/07/31 08:05:01;;;;;;;;;2.00;2.00;;;;;42.59;22.71;100642.56;5035764;28;45443;-75
2023/07/31 08:07:27;;;;;;;;;2.33;2.33;;;;;41.77;23.55;100639.88;5034011;28;46873;-75
2023/07/31 08:09:52;;;;;;;;;1.67;1.67;;;;;42.28;22.39;100626.50;5038357;28;45319;-77
2023/07/31 08:12:18;;;;;;;;;1.00;0.00;;;;;43.44;22.25;100638.13;5038906;28;45397;-76
2023/07/31 08:14:44;;;;;;;;;1.67;1.00;;;;;44.17;21.53;100633.84;5037634;28;45410;-74
2023/07/31 08:17:10;;;;;;;;;1.33;0.67;;;;;44.51;20.61;100630.09;5036838;28;46547;-75
2023/07/31 08:19:35;;;;;;;;;0.67;0.33;;;;;44.03;20.18;100632.59;5037236;28;45506;-75
2023/07/31 08:22:01;;;;;;;;;25.33;24.00;;;;;44.24;21.24;100631.25;5038011;28;45483;-77
2023/07/31 08:24:26;;;;;;;;;5.33;5.00;;;;;44.57;21.01;100621.13;5038880;28;45492;-74
2023/07/31 08:26:52;;;;;;;;;3.00;3.00;;;;;44.73;20.07;100628.50;5038223;28;45619;-74
2023/07/31 08:29:18;;;;;;;;;2.00;2.00;;;;;44.75;19.85;100623.66;5036573;28;45526;-74
2023/07/31 08:31:43;;;;;;;;;3.67;2.67;;;;;44.76;19.35;100619.88;5037974;28;45414;-74
2023/07/31 08:34:09;;;;;;;;;3.00;1.00;;;;;44.11;20.62;100619.91;5038212;28;45503;-74
2023/07/31 08:36:34;;;;;;;;;3.00;2.33;;;;;44.38;20.48;100616.78;5037741;28;46156;-74
2023/07/31 08:39:00;;;;;;;;;1.33;1.33;;;;;44.58;20.53;100613.72;5036390;28;45357;-73
2023/07/31 08:41:27;;;;;;;;;1.67;1.67;;;;;44.52;20.74;100617.16;5036539;28;45442;-73
2023/07/31 08:43:55;;;;;;;;;2.67;2.67;;;;;45.33;20.35;100615.25;5037788;28;45542;-74
2023/07/31 08:46:21;;;;;;;;;1.67;1.67;;;;;45.40;19.96;100616.25;5036047;28;46990;-74
2023/07/31 08:48:47;;;;;;;;;2.67;2.67;;;;;45.43;20.28;100600.19;5036077;28;45166;-73
2023/07/31 08:51:15;;;;;;;;;1.67;1.67;;;;;46.01;19.83;100608.97;5035552;28;45379;-74
2023/07/31 08:53:41;;;;;;;;;2.00;2.00;;;;;46.37;19.51;100602.81;5038054;28;45498;-75
2023/07/31 08:56:07;;;;;;;;;1.67;1.67;;;;;46.77;19.71;100599.84;5037233;28;45473;-74
2023/07/31 08:58:36;;;;;;;;;1.67;1.67;;;;;46.78;20.25;100596.91;5036698;28;45552;-73
2023/07/31 09:01:04;;;;;;;;;2.67;1.67;;;;;46.74;18.70;100594.69;5036888;28;45453;-74
2023/07/31 09:03:33;;;;;;;;;2.67;2.67;;;;;46.40;18.90;100593.28;5037288;28;45504;-75
2023/07/31 09:05:59;;;;;;;;;2.33;2.00;;;;;46.63;18.83;100593.25;5037348;28;45425;-80
2023/07/31 09:08:29;;;;;;;;;2.00;1.67;;;;;46.62;18.51;100591.56;5035817;28;45648;-73
2023/07/31 09:11:05;;;;;;;;;2.00;2.00;;;;;46.52;19.75;100594.59;5036748;28;45400;-76
2023/07/31 09:13:31;;;;;;;;;2.00;2.00;;;;;46.92;19.74;100569.44;5034815;28;45398;-75
2023/07/31 09:15:57;;;;;;;;;2.67;2.00;;;;;47.28;18.82;100588.91;5037190;28;45324;-75
2023/07/31 09:18:23;;;;;;;;;1.33;1.33;;;;;47.14;18.44;100593.38;5035736;28;45552;-74
2023/07/31 09:21:04;;;;;;;;;2.67;2.00;;;;;47.21;18.92;100597.09;5037648;28;46256;-77
2023/07/31 09:23:47;;;;;;;;;1.67;1.67;;;;;47.39;18.93;100596.69;5036828;28;45514;-75
2023/07/31 09:26:33;;;;;;;;;2.67;2.00;;;;;47.61;18.28;100591.22;5035733;28;46063;-74
2023/07/31 09:29:00;;;;;;;;;2.67;2.33;;;;;47.47;17.97;100584.63;5035032;28;45635;-74
2023/07/31 09:31:53;;;;;;;;;4.00;2.33;;;;;46.40;18.41;100588.63;5035826;28;45601;-74
2023/07/31 09:34:19;;;;;;;;;3.67;3.00;;;;;45.88;19.47;100589.41;5032396;28;45320;-75
2023/07/31 09:36:47;;;;;;;;;1.67;1.67;;;;;45.64;20.00;100577.47;5036562;28;45488;-74
2023/07/31 09:39:15;;;;;;;;;2.33;2.33;;;;;45.68;19.15;100583.50;5033580;28;45298;-75
2023/07/31 09:41:54;;;;;;;;;2.00;2.00;;;;;45.36;19.94;100574.38;5035024;28;45473;-76
2023/07/31 09:44:21;;;;;;;;;2.00;2.00;;;;;44.43;21.02;100586.84;5033584;28;45482;-74
2023/07/31 09:46:48;;;;;;;;;2.67;2.00;;;;;44.05;21.19;100574.59;5036351;28;45366;-75
2023/07/31 09:49:14;;;;;;;;;2.33;2.33;;;;;43.74;21.24;100572.53;5035079;28;45565;-75
2023/07/31 09:51:42;;;;;;;;;2.00;2.00;;;;;43.72;21.81;100584.75;5036848;28;45414;-74
2023/07/31 09:54:16;;;;;;;;;1.67;1.00;;;;;43.68;21.75;100582.34;5036989;28;45513;-75
2023/07/31 09:56:48;;;;;;;;;1.67;1.67;;;;;44.00;21.70;100585.28;5036558;28;45456;-74
2023/07/31 09:59:19;;;;;;;;;3.00;2.00;;;;;44.65;21.19;100589.94;5036217;28;45502;-75
2023/07/31 10:01:46;;;;;;;;;2.33;1.33;;;;;45.03;21.07;100579.16;5035903;28;45362;-75
2023/07/31 10:04:13;;;;;;;;;4.00;4.00;;;;;45.22;20.44;100586.13;5034823;28;45647;-74
2023/07/31 10:06:40;;;;;;;;;2.00;1.67;;;;;45.20;20.30;100571.66;5036510;28;46103;-75
2023/07/31 10:09:10;;;;;;;;;1.67;1.67;;;;;45.21;20.32;100582.53;5036320;28;45581;-74
2023/07/31 10:11:43;;;;;;;;;0.67;0.67;;;;;44.11;19.89;100592.38;5036198;28;45604;-75
2023/07/31 10:14:10;;;;;;;;;0.33;0.33;;;;;43.79;20.43;100588.53;5035102;28;45723;-74
2023/07/31 10:16:39;;;;;;;;;1.00;1.00;;;;;43.50;20.99;100589.84;5035949;28;45489;-74
2023/07/31 10:19:05;;;;;;;;;2.33;1.67;;;;;42.83;21.88;100584.16;5034753;28;45482;-74
2023/07/31 10:21:34;;;;;;;;;1.67;1.67;;;;;42.87;21.86;100580.94;5035981;28;45442;-75
2023/07/31 10:24:03;;;;;;;;;1.00;1.00;;;;;42.96;22.10;100589.22;5034607;28;45490;-75
2023/07/31 10:26:30;;;;;;;;;3.33;3.00;;;;;43.68;21.97;100581.47;5031914;28;45802;-75
2023/07/31 10:28:58;;;;;;;;;3.67;3.33;;;;;43.44;21.33;100577.59;5035966;28;45454;-74
2023/07/31 10:31:24;;;;;;;;;4.67;4.00;;;;;42.81;22.31;100584.31;5036191;28;45343;-74
2023/07/31 10:33:52;;;;;;;;;1.67;1.67;;;;;42.71;21.87;100578.94;5035912;28;45481;-74
2023/07/31 10:36:20;;;;;;;;;4.00;4.00;;;;;42.34;22.72;100573.69;5035635;28;45399;-74
2023/07/31 10:38:50;;;;;;;;;1.00;1.00;;;;;42.61;23.55;100574.59;5036143;28;45399;-74
2023/07/31 10:41:16;;;;;;;;;2.00;1.67;;;;;42.97;23.38;100578.09;5032840;28;45530;-74
2023/07/31 10:43:42;;;;;;;;;7.33;6.33;;;;;43.42;22.62;100578.81;5034380;28;45447;-76
2023/07/31 10:46:14;;;;;;;;;4.67;4.33;;;;;42.80;22.82;100578.97;5035426;28;45447;-75
2023/07/31 10:48:41;;;;;;;;;3.67;3.00;;;;;42.19;23.37;100565.19;5035758;28;45434;-75
2023/07/31 10:51:13;;;;;;;;;2.00;2.00;;;;;42.10;24.10;100578.00;5036546;28;45423;-75
2023/07/31 10:53:40;;;;;;;;;2.33;1.67;;;;;42.07;24.04;100567.31;5036803;28;45462;-75
2023/07/31 10:56:08;;;;;;;;;1.33;1.33;;;;;42.40;23.46;100569.44;5036359;28;46285;-75
2023/07/31 10:58:34;;;;;;;;;1.33;1.33;;;;;42.32;23.99;100573.00;5035902;28;45523;-75
2023/07/31 11:01:03;;;;;;;;;1.67;1.67;;;;;42.24;24.39;100567.44;5036488;28;46081;-74
2023/07/31 11:03:52;;;;;;;;;3.00;2.67;;;;;42.04;23.49;100561.28;5035454;28;45550;-73
2023/07/31 11:06:18;;;;;;;;;3.67;3.67;;;;;41.89;23.70;100564.56;5015365;28;45801;-74
2023/07/31 11:08:48;;;;;;;;;1.00;1.00;;;;;41.82;24.20;100560.72;5027981;28;45324;-74
2023/07/31 11:11:19;;;;;;;;;1.67;1.00;;;;;41.85;24.71;100563.16;5035242;28;45457;-73
2023/07/31 11:13:50;;;;;;;;;1.00;1.00;;;;;41.77;23.77;100564.97;5036850;28;45426;-74
2023/07/31 11:16:16;;;;;;;;;2.67;2.67;;;;;41.19;24.41;100553.34;5034987;28;46791;-73
2023/07/31 11:18:44;;;;;;;;;2.00;2.00;;;;;40.60;24.33;100560.88;5034655;28;45431;-74
2023/07/31 11:21:15;;;;;;;;;1.00;1.00;;;;;40.27;25.25;100563.09;5034647;28;45443;-75
2023/07/31 11:23:41;;;;;;;;;3.67;3.67;;;;;39.89;25.47;100561.25;5033969;28;45495;-74